Sparkman, Arkansas
Current Conditions -  °F | °C
As of 1:56 AM on Saturday 20 Dec 2014 (Local Time) from KADF Reporting Station
Overcast Overcast  
Wind Chill: 39°   Ceiling: 4700
Heat Index: 42°   Visibility: 9mi
Dew Point: 41°   Wind: 5mph
Humidity: 97%   Direction: 40°NE
Pressure: 30.24"   Gusts: NA
Location:  33.92°N, 92.85°W
Report Text: KADF 200756Z AUTO 04004KT 9SM OVC047 06/05 A3024 RMK AO2 T00550050 SLP255
Loading
Personal Weather Stations






























Interactive Weather Map New forecast layout! Learn more

10-Day Weather Forecast

Advertisements
Track Severe Weather on mobile